Time;durP1;ratioP1;P1;durP2;ratioP2;P2;SDS_P1;SDS_P2;PMS_P1;PMS_P2;Temp;Humidity;BMP_temperature;BMP_pressure;BME280_temperature;BME280_humidity;BME280_pressure;Samples;Min_cycle;Max_cycle;Signal;HPM_P1;HPM_P2
2023/07/04 00:01:46;;;;;;;0.40;0.40;;;13.80;99.90;;;;;;5114562;28;20047;-73
2023/07/04 00:04:12;;;;;;;0.47;0.47;;;13.80;99.90;;;;;;5114271;28;20459;-73
2023/07/04 00:06:39;;;;;;;0.40;0.40;;;13.90;99.90;;;;;;5114318;28;20149;-73
2023/07/04 00:09:05;;;;;;;;;;;13.80;99.90;;;;;;5114469;28;20051;-73
2023/07/04 00:11:31;;;;;;;0.40;0.40;;;13.80;99.90;;;;;;5114192;28;19915;-73
2023/07/04 00:13:57;;;;;;;0.50;0.50;;;13.90;99.90;;;;;;5114281;28;20105;-73
2023/07/04 00:16:23;;;;;;;0.40;0.40;;;13.80;99.90;;;;;;5115089;28;20378;-72
2023/07/04 00:18:49;;;;;;;0.43;0.43;;;13.90;99.90;;;;;;5114834;28;20048;-73
2023/07/04 00:21:14;;;;;;;0.50;0.50;;;13.90;99.90;;;;;;5114837;28;20126;-72
2023/07/04 00:23:45;;;;;;;0.50;0.50;;;13.80;99.90;;;;;;5114341;28;20082;-73
2023/07/04 00:26:11;;;;;;;1.17;0.82;;;13.80;99.90;;;;;;5114613;28;20043;-72
2023/07/04 00:28:38;;;;;;;0.50;0.50;;;13.80;99.90;;;;;;5115324;28;20047;-73
2023/07/04 00:31:05;;;;;;;0.40;0.40;;;13.90;99.90;;;;;;5114231;28;20043;-72
2023/07/04 00:33:31;;;;;;;0.40;0.40;;;13.80;99.90;;;;;;5114032;28;20114;-73
2023/07/04 00:36:05;;;;;;;0.40;0.40;;;13.90;99.90;;;;;;5114111;28;20429;-73
2023/07/04 00:38:32;;;;;;;0.50;0.50;;;13.80;99.90;;;;;;5113991;28;20036;-73
2023/07/04 00:41:04;;;;;;;0.50;0.50;;;13.80;99.90;;;;;;5113846;28;20126;-73
2023/07/04 00:43:56;;;;;;;0.45;0.45;;;13.80;99.90;;;;;;5114005;28;20040;-73
2023/07/04 00:46:28;;;;;;;0.52;0.52;;;13.80;99.90;;;;;;5114139;28;20054;-73
2023/07/04 00:48:56;;;;;;;0.40;0.40;;;13.70;99.90;;;;;;5113988;28;20048;-73
2023/07/04 00:51:22;;;;;;;0.47;0.47;;;13.80;99.90;;;;;;5095907;28;20042;-73
2023/07/04 00:53:53;;;;;;;0.50;0.50;;;13.80;99.90;;;;;;5113857;28;20047;-72
2023/07/04 00:56:25;;;;;;;0.50;0.50;;;13.80;99.90;;;;;;5113872;28;20516;-73
2023/07/04 00:58:53;;;;;;;0.40;0.40;;;13.80;99.90;;;;;;5113815;28;20093;-73
2023/07/04 01:01:19;;;;;;;0.40;0.40;;;13.70;99.90;;;;;;5113906;28;20349;-73
2023/07/04 01:03:46;;;;;;;0.50;0.50;;;13.70;99.90;;;;;;5129652;28;20158;-73
2023/07/04 01:06:29;;;;;;;0.47;0.47;;;13.70;99.90;;;;;;5113731;28;20128;-73
2023/07/04 01:09:00;;;;;;;0.80;0.80;;;13.60;99.90;;;;;;5113714;28;20071;-73
2023/07/04 01:11:33;;;;;;;0.50;0.50;;;13.70;99.90;;;;;;5113975;28;20531;-72
2023/07/04 01:13:59;;;;;;;0.40;0.40;;;13.60;99.90;;;;;;5113828;28;20047;-73
2023/07/04 01:16:25;;;;;;;0.47;0.47;;;13.50;99.90;;;;;;5113946;28;20036;-73
2023/07/04 01:18:54;;;;;;;0.50;0.50;;;13.50;99.90;;;;;;5114098;28;20036;-72
2023/07/04 01:21:24;;;;;;;0.40;0.40;;;13.50;99.90;;;;;;5096364;28;20043;-73
2023/07/04 01:24:12;;;;;;;0.40;0.40;;;13.50;99.90;;;;;;5078910;28;20079;-73
2023/07/04 01:26:41;;;;;;;0.40;0.40;;;13.50;99.90;;;;;;5114141;28;20047;-73
2023/07/04 01:29:10;;;;;;;0.50;0.50;;;13.50;99.90;;;;;;5114063;28;20039;-73
2023/07/04 01:31:36;;;;;;;0.50;0.50;;;13.50;99.90;;;;;;5113761;28;20118;-73
2023/07/04 01:34:06;;;;;;;0.50;0.50;;;13.50;99.90;;;;;;5113542;28;20105;-73
2023/07/04 01:36:37;;;;;;;0.47;0.47;;;13.50;99.90;;;;;;5116397;28;20040;-73
2023/07/04 01:39:04;;;;;;;0.50;0.50;;;13.40;99.90;;;;;;5117316;28;20043;-73
2023/07/04 01:41:31;;;;;;;0.40;0.40;;;13.40;99.90;;;;;;5116995;28;20027;-73
2023/07/04 01:44:05;;;;;;;0.50;0.50;;;13.30;99.90;;;;;;5117715;28;20089;-73
2023/07/04 01:46:32;;;;;;;0.50;0.50;;;13.30;99.90;;;;;;5116971;28;20472;-73
2023/07/04 01:48:58;;;;;;;;;;;13.30;99.90;;;;;;5117229;28;20082;-73
2023/07/04 01:51:32;;;;;;;0.40;0.40;;;13.30;99.90;;;;;;5116914;28;20332;-73
2023/07/04 01:53:58;;;;;;;1.35;1.25;;;13.20;99.90;;;;;;5116801;28;20126;-73
2023/07/04 01:56:24;;;;;;;0.50;0.50;;;13.20;99.90;;;;;;5116871;28;20082;-73
2023/07/04 01:58:50;;;;;;;0.50;0.50;;;13.20;99.90;;;;;;5116765;28;20516;-74
2023/07/04 02:01:16;;;;;;;0.50;0.50;;;13.10;99.90;;;;;;5116715;28;20376;-73
2023/07/04 02:03:42;;;;;;;0.40;0.40;;;13.10;99.90;;;;;;5116548;28;20039;-73
2023/07/04 02:06:08;;;;;;;0.50;0.50;;;13.10;99.90;;;;;;5116611;28;20039;-73
2023/07/04 02:08:34;;;;;;;0.50;0.50;;;13.00;99.90;;;;;;5116561;28;20067;-73
2023/07/04 02:10:59;;;;;;;0.50;0.50;;;13.00;99.90;;;;;;5116194;28;20035;-73
2023/07/04 02:13:25;;;;;;;0.50;0.50;;;13.00;99.90;;;;;;5116451;28;20482;-73
2023/07/04 02:15:50;;;;;;;0.40;0.40;;;13.00;99.90;;;;;;5116582;28;20031;-73
2023/07/04 02:18:17;;;;;;;0.50;0.50;;;13.00;99.90;;;;;;5116301;28;20046;-73
2023/07/04 02:20:42;;;;;;;0.50;0.50;;;12.90;99.90;;;;;;5116339;28;20043;-73
2023/07/04 02:23:08;;;;;;;0.50;0.50;;;12.90;99.90;;;;;;5116197;28;20114;-73
2023/07/04 02:25:40;;;;;;;0.55;0.55;;;12.90;99.90;;;;;;5116277;28;20467;-74
2023/07/04 02:28:06;;;;;;;3.75;1.45;;;12.90;99.90;;;;;;5116209;28;20042;-73
2023/07/04 02:30:31;;;;;;;0.60;0.60;;;12.90;99.90;;;;;;5116349;28;20114;-73
2023/07/04 02:32:57;;;;;;;0.50;0.50;;;12.90;99.90;;;;;;5116104;28;20055;-73
2023/07/04 02:35:23;;;;;;;0.50;0.50;;;12.90;99.90;;;;;;5116262;28;20474;-73
2023/07/04 02:37:49;;;;;;;0.60;0.60;;;12.90;99.90;;;;;;5115937;28;20040;-73
2023/07/04 02:40:15;;;;;;;0.50;0.50;;;12.90;99.90;;;;;;5116527;28;20035;-73
2023/07/04 02:42:40;;;;;;;0.40;0.40;;;12.80;99.90;;;;;;5115934;28;20152;-73
2023/07/04 02:45:08;;;;;;;0.50;0.50;;;12.80;99.90;;;;;;5097733;28;20043;-73
2023/07/04 02:47:33;;;;;;;0.50;0.50;;;12.80;99.90;;;;;;5115444;28;20036;-73
2023/07/04 02:49:59;;;;;;;0.50;0.50;;;12.80;99.90;;;;;;5097496;28;20040;-73
2023/07/04 02:52:26;;;;;;;0.50;0.50;;;12.90;99.90;;;;;;5115704;28;20118;-73
2023/07/04 02:54:52;;;;;;;0.50;0.50;;;12.80;99.90;;;;;;5115684;28;20046;-73
2023/07/04 02:57:18;;;;;;;0.50;0.50;;;12.80;99.90;;;;;;5116125;28;20040;-73
2023/07/04 02:59:44;;;;;;;0.50;0.50;;;12.80;99.90;;;;;;5130457;27;20050;-73
2023/07/04 03:02:10;;;;;;;0.50;0.50;;;12.80;99.90;;;;;;5136267;27;20088;-73
2023/07/04 03:04:36;;;;;;;0.50;0.50;;;12.80;99.90;;;;;;5136091;27;20129;-73
2023/07/04 03:07:03;;;;;;;0.47;0.47;;;12.80;99.90;;;;;;5136113;27;20122;-73
2023/07/04 03:09:29;;;;;;;;;;;12.80;99.90;;;;;;5136779;27;20031;-73
2023/07/04 03:11:54;;;;;;;0.50;0.50;;;12.80;99.90;;;;;;5136181;27;19916;-73
2023/07/04 03:14:20;;;;;;;0.50;0.50;;;12.70;99.90;;;;;;5136220;27;20043;-73
2023/07/04 03:16:46;;;;;;;0.50;0.50;;;12.80;99.90;;;;;;5135959;27;20027;-73
2023/07/04 03:19:11;;;;;;;0.60;0.60;;;13.30;99.90;;;;;;5135749;27;20126;-72
2023/07/04 03:21:37;;;;;;;0.80;0.80;;;12.80;99.90;;;;;;5135662;27;20490;-73
2023/07/04 03:24:03;;;;;;;0.93;0.93;;;12.80;99.90;;;;;;5135357;27;20122;-73
2023/07/04 03:26:29;;;;;;;0.50;0.50;;;12.80;99.90;;;;;;5136214;27;20434;-73
2023/07/04 03:28:54;;;;;;;0.50;0.50;;;12.80;99.90;;;;;;5135646;27;20031;-73
2023/07/04 03:31:20;;;;;;;0.50;0.50;;;12.80;99.90;;;;;;5135439;27;20042;-73
2023/07/04 03:33:45;;;;;;;0.50;0.50;;;12.80;99.90;;;;;;5135450;27;20031;-74
2023/07/04 03:36:11;;;;;;;0.50;0.50;;;12.80;99.90;;;;;;5135490;27;20038;-73
2023/07/04 03:38:37;;;;;;;0.52;0.52;;;12.80;99.90;;;;;;5135381;27;20133;-74
2023/07/04 03:41:02;;;;;;;0.50;0.50;;;12.90;99.90;;;;;;5117354;27;20070;-73
2023/07/04 03:43:28;;;;;;;0.93;0.93;;;12.90;99.90;;;;;;5135308;27;20043;-73
2023/07/04 03:45:54;;;;;;;0.50;0.50;;;12.80;99.90;;;;;;5135340;27;20374;-73
2023/07/04 03:48:22;;;;;;;0.50;0.50;;;12.90;99.90;;;;;;5135197;27;20118;-73
2023/07/04 03:50:47;;;;;;;0.50;0.50;;;12.90;99.90;;;;;;5135012;27;20038;-73
2023/07/04 03:53:13;;;;;;;0.60;0.60;;;12.90;99.90;;;;;;5134854;27;20042;-73
2023/07/04 03:55:39;;;;;;;0.57;0.57;;;12.90;99.90;;;;;;5135044;27;20036;-73
2023/07/04 03:58:05;;;;;;;0.50;0.50;;;12.90;99.90;;;;;;5134420;27;20348;-73
2023/07/04 04:00:31;;;;;;;0.50;0.50;;;13.00;99.90;;;;;;5135055;27;20277;-73
2023/07/04 04:02:57;;;;;;;0.57;0.57;;;13.00;99.90;;;;;;5134994;27;20135;-73
2023/07/04 04:05:22;;;;;;;0.50;0.50;;;13.00;99.90;;;;;;5135127;27;20090;-73
2023/07/04 04:07:50;;;;;;;0.50;0.50;;;13.00;99.90;;;;;;5134838;27;20463;-73
2023/07/04 04:10:35;;;;;;;0.65;0.65;;;13.00;99.90;;;;;;5134723;27;20070;-73
2023/07/04 04:13:01;;;;;;;0.50;0.50;;;13.00;99.90;;;;;;5135587;27;20035;-73
2023/07/04 04:15:27;;;;;;;0.60;0.60;;;13.10;99.90;;;;;;5134760;28;20122;-73
2023/07/04 04:17:53;;;;;;;0.40;0.40;;;13.10;99.90;;;;;;5134750;27;20043;-73
2023/07/04 04:20:19;;;;;;;0.63;0.63;;;13.10;99.90;;;;;;5134751;28;20046;-74
2023/07/04 04:22:47;;;;;;;0.50;0.50;;;13.10;99.90;;;;;;5135246;28;20035;-73
2023/07/04 04:25:14;;;;;;;0.57;0.57;;;13.10;99.90;;;;;;5134733;28;20035;-74
2023/07/04 04:27:40;;;;;;;0.50;0.50;;;13.20;99.90;;;;;;5135034;28;20122;-76
2023/07/04 04:30:10;;;;;;;0.60;0.60;;;13.20;99.90;;;;;;5134571;28;20047;-72
2023/07/04 04:32:40;;;;;;;0.50;0.50;;;13.20;99.90;;;;;;5134479;28;20115;-73
2023/07/04 04:35:08;;;;;;;0.40;0.40;;;13.30;99.90;;;;;;5134909;28;20039;-75
2023/07/04 04:37:34;;;;;;;0.50;0.50;;;13.30;99.90;;;;;;5134619;28;20039;-74
2023/07/04 04:40:00;;;;;;;0.40;0.40;;;13.30;99.90;;;;;;5116133;28;20057;-74
2023/07/04 04:42:28;;;;;;;0.93;0.93;;;13.30;99.90;;;;;;5134535;28;20366;-74
2023/07/04 04:44:54;;;;;;;0.43;0.43;;;13.40;99.90;;;;;;5134472;28;20043;-74
2023/07/04 04:47:24;;;;;;;0.40;0.40;;;13.40;99.90;;;;;;5134408;28;20095;-73
2023/07/04 04:49:51;;;;;;;0.40;0.40;;;13.50;99.90;;;;;;5134168;28;20396;-74
2023/07/04 04:52:21;;;;;;;1.70;1.60;;;13.50;99.90;;;;;;5134328;28;20115;-73
2023/07/04 04:54:47;;;;;;;0.60;0.60;;;13.50;99.90;;;;;;5116031;28;20412;-74
2023/07/04 04:57:14;;;;;;;0.40;0.40;;;13.60;99.90;;;;;;5134255;28;20140;-74
2023/07/04 04:59:40;;;;;;;0.40;0.40;;;13.60;99.90;;;;;;5134294;28;20106;-73
2023/07/04 05:02:06;;;;;;;0.50;0.50;;;13.60;99.90;;;;;;5134094;28;20518;-73
2023/07/04 05:04:33;;;;;;;0.60;0.60;;;13.60;99.90;;;;;;5134048;28;20149;-73
2023/07/04 05:06:59;;;;;;;1.23;1.13;;;13.60;99.90;;;;;;5134246;28;20035;-73
2023/07/04 05:09:25;;;;;;;0.40;0.40;;;13.60;99.90;;;;;;5135173;27;20366;-74
2023/07/04 05:11:50;;;;;;;0.40;0.40;;;13.70;99.90;;;;;;5138199;27;20089;-74
2023/07/04 05:14:16;;;;;;;0.40;0.40;;;13.70;99.90;;;;;;5138174;27;20031;-73
2023/07/04 05:16:41;;;;;;;0.50;0.50;;;13.70;99.90;;;;;;5138200;27;20039;-74
2023/07/04 05:19:07;;;;;;;0.40;0.40;;;13.70;99.90;;;;;;5138141;27;20118;-73
2023/07/04 05:21:33;;;;;;;0.50;0.50;;;13.70;99.90;;;;;;5138017;27;20459;-73
2023/07/04 05:23:59;;;;;;;1.88;1.30;;;13.80;99.90;;;;;;5137853;27;20031;-74
2023/07/04 05:26:27;;;;;;;0.40;0.40;;;13.80;99.90;;;;;;5137858;27;20091;-74
2023/07/04 05:28:55;;;;;;;0.57;0.57;;;13.80;99.90;;;;;;5137648;27;20459;-74
2023/07/04 05:31:24;;;;;;;0.47;0.47;;;13.90;99.90;;;;;;5137694;27;20062;-74
2023/07/04 05:33:52;;;;;;;0.40;0.40;;;14.00;99.90;;;;;;5137820;27;20130;-74
2023/07/04 05:36:26;;;;;;;0.40;0.40;;;14.00;99.90;;;;;;5137596;27;20058;-74
2023/07/04 05:38:54;;;;;;;0.40;0.40;;;14.00;99.90;;;;;;5137595;27;20043;-74
2023/07/04 05:41:23;;;;;;;0.38;0.38;;;14.00;99.90;;;;;;5137675;27;20063;-74
2023/07/04 05:43:49;;;;;;;0.57;0.57;;;14.10;99.90;;;;;;5137448;27;20065;-74
2023/07/04 05:46:16;;;;;;;0.50;0.50;;;14.10;99.90;;;;;;5137606;27;20043;-76
2023/07/04 05:48:43;;;;;;;0.40;0.40;;;14.10;99.90;;;;;;5137542;27;20046;-81
2023/07/04 05:51:11;;;;;;;0.40;0.40;;;14.20;99.90;;;;;;5137375;27;20040;-75
2023/07/04 05:53:41;;;;;;;0.40;0.40;;;14.20;99.90;;;;;;5137289;27;20047;-72
2023/07/04 05:56:29;;;;;;;2.75;0.70;;;14.30;99.90;;;;;;5137060;27;20035;-76
2023/07/04 05:58:56;;;;;;;;;;;14.30;99.90;;;;;;5137694;27;20043;-72
2023/07/04 06:01:34;;;;;;;0.40;0.40;;;14.40;99.90;;;;;;5137186;27;19915;-73
2023/07/04 06:04:01;;;;;;;0.43;0.43;;;14.40;99.90;;;;;;5135657;27;20088;-71
2023/07/04 06:06:37;;;;;;;0.40;0.40;;;14.50;99.90;;;;;;5136578;27;20053;-72
2023/07/04 06:09:05;;;;;;;0.45;0.45;;;14.50;99.90;;;;;;5135812;27;20114;-70
2023/07/04 06:11:33;;;;;;;0.75;0.75;;;14.60;99.90;;;;;;5136353;27;20051;-77
2023/07/04 06:14:01;;;;;;;0.60;0.60;;;14.60;99.90;;;;;;5118863;27;20041;-77
2023/07/04 06:16:27;;;;;;;0.50;0.50;;;14.70;99.90;;;;;;5118823;27;20046;-80
2023/07/04 06:18:53;;;;;;;0.50;0.50;;;14.80;99.90;;;;;;5136637;27;20039;-79
2023/07/04 06:21:20;;;;;;;0.50;0.50;;;14.90;99.90;;;;;;5135732;27;20031;-80
2023/07/04 06:23:46;;;;;;;0.40;0.40;;;15.00;99.90;;;;;;5118180;27;20042;-79
2023/07/04 06:26:13;;;;;;;0.50;0.50;;;15.10;99.90;;;;;;5136539;27;20397;-80
2023/07/04 06:28:40;;;;;;;0.50;0.50;;;15.10;99.90;;;;;;5136710;27;20431;-79
2023/07/04 06:31:07;;;;;;;0.40;0.40;;;15.30;99.90;;;;;;5136532;27;20031;-79
2023/07/04 06:33:33;;;;;;;0.40;0.40;;;15.40;99.90;;;;;;5136489;27;20091;-76
2023/07/04 06:35:59;;;;;;;0.40;0.40;;;15.50;99.90;;;;;;5136619;27;20046;-77
2023/07/04 06:38:26;;;;;;;0.40;0.40;;;15.50;99.90;;;;;;5136710;27;20277;-75
2023/07/04 06:41:00;;;;;;;0.60;0.60;;;15.60;99.90;;;;;;5136267;27;20035;-74
2023/07/04 06:43:27;;;;;;;0.30;0.30;;;15.70;99.90;;;;;;5136484;27;20039;-74
2023/07/04 06:45:54;;;;;;;0.40;0.40;;;15.90;99.90;;;;;;5136081;27;20046;-69
2023/07/04 06:48:24;;;;;;;0.40;0.40;;;16.20;99.90;;;;;;5136101;27;20122;-69
2023/07/04 06:51:13;;;;;;;0.40;0.40;;;16.50;99.90;;;;;;5135515;27;20031;-70
2023/07/04 06:53:39;;;;;;;0.40;0.40;;;16.60;99.90;;;;;;5135800;27;20047;-69
2023/07/04 06:56:09;;;;;;;0.30;0.30;;;16.70;99.90;;;;;;5136322;27;20043;-72
2023/07/04 06:58:40;;;;;;;0.30;0.30;;;16.70;99.90;;;;;;5136129;27;20485;-70
2023/07/04 07:01:06;;;;;;;0.40;0.40;;;16.70;99.90;;;;;;5135714;27;20035;-69
2023/07/04 07:03:33;;;;;;;0.40;0.40;;;16.80;99.90;;;;;;5135350;27;20043;-70
2023/07/04 07:06:06;;;;;;;0.40;0.40;;;16.80;99.90;;;;;;5135933;27;20042;-71
2023/07/04 07:08:33;;;;;;;0.40;0.40;;;16.90;99.90;;;;;;5135704;27;20054;-70
2023/07/04 07:11:01;;;;;;;0.40;0.40;;;16.90;99.90;;;;;;5135642;27;20034;-70
2023/07/04 07:13:27;;;;;;;0.40;0.40;;;17.00;99.90;;;;;;5135716;27;20143;-70
2023/07/04 07:16:14;;;;;;;0.40;0.40;;;17.00;99.90;;;;;;5135496;27;20125;-69
2023/07/04 07:18:41;;;;;;;0.40;0.40;;;17.00;99.90;;;;;;5135636;27;20050;-70
2023/07/04 07:21:07;;;;;;;;;;;17.00;99.90;;;;;;5135942;27;20498;-70
2023/07/04 07:23:34;;;;;;;0.40;0.40;;;17.00;99.90;;;;;;5116853;27;19920;-70
2023/07/04 07:26:02;;;;;;;0.40;0.40;;;16.90;99.90;;;;;;5135341;27;20047;-70
2023/07/04 07:28:30;;;;;;;0.40;0.40;;;16.90;99.90;;;;;;5135268;27;20063;-70
2023/07/04 07:31:09;;;;;;;0.47;0.47;;;17.00;99.90;;;;;;5135401;27;20034;-71
2023/07/04 07:33:36;;;;;;;0.40;0.40;;;17.30;99.90;;;;;;5134326;27;20091;-70
2023/07/04 07:36:20;;;;;;;0.35;0.35;;;17.60;99.90;;;;;;5135311;27;20050;-70
2023/07/04 07:38:47;;;;;;;0.30;0.30;;;17.90;99.90;;;;;;5134924;27;20035;-70
2023/07/04 07:41:12;;;;;;;;;;;18.20;99.90;;;;;;5135589;27;20035;-70
2023/07/04 07:43:39;;;;;;;2.30;0.85;;;18.40;99.90;;;;;;5134764;27;19916;-70
2023/07/04 07:46:08;;;;;;;;;;;18.50;99.90;;;;;;5135420;27;20035;-70
2023/07/04 07:48:34;;;;;;;1.30;0.60;;;18.50;99.90;;;;;;5135125;27;20267;-70
2023/07/04 07:50:59;;;;;;;0.30;0.30;;;18.50;99.90;;;;;;5116784;27;20035;-70
2023/07/04 07:53:25;;;;;;;0.40;0.40;;;18.60;99.90;;;;;;5134404;27;20074;-71
2023/07/04 07:55:51;;;;;;;0.40;0.40;;;18.60;99.90;;;;;;5134545;27;20094;-77
2023/07/04 07:58:16;;;;;;;0.50;0.50;;;18.80;99.90;;;;;;5134468;27;20042;-71
2023/07/04 08:00:42;;;;;;;0.40;0.40;;;19.00;99.90;;;;;;5134554;27;20416;-71
2023/07/04 08:03:08;;;;;;;0.37;0.37;;;19.20;99.90;;;;;;5134765;27;20039;-70
2023/07/04 08:05:41;;;;;;;0.40;0.40;;;19.10;99.90;;;;;;5134449;27;20047;-73
2023/07/04 08:08:08;;;;;;;0.35;0.35;;;19.20;99.90;;;;;;5134467;27;20039;-71
2023/07/04 08:10:39;;;;;;;0.50;0.50;;;19.00;99.90;;;;;;5134633;27;20482;-70
2023/07/04 08:13:04;;;;;;;0.30;0.30;;;18.90;99.90;;;;;;5134573;27;20479;-71
2023/07/04 08:15:30;;;;;;;0.30;0.30;;;18.70;99.90;;;;;;5134519;27;20045;-71
2023/07/04 08:17:56;;;;;;;0.30;0.30;;;18.60;99.90;;;;;;5134442;27;20035;-71
2023/07/04 08:20:23;;;;;;;0.50;0.50;;;18.50;99.90;;;;;;5134383;27;20383;-70
2023/07/04 08:22:48;;;;;;;0.30;0.30;;;18.40;99.90;;;;;;5134313;27;20542;-73
2023/07/04 08:25:14;;;;;;;0.30;0.30;;;18.60;99.90;;;;;;5134582;27;20117;-71
2023/07/04 08:27:40;;;;;;;0.30;0.30;;;18.90;99.90;;;;;;5134238;28;20050;-71
2023/07/04 08:30:06;;;;;;;0.30;0.30;;;19.20;99.90;;;;;;5128027;27;20096;-69
2023/07/04 08:32:33;;;;;;;0.50;0.50;;;19.50;99.90;;;;;;5133050;28;20043;-72
2023/07/04 08:35:00;;;;;;;0.40;0.40;;;19.50;99.90;;;;;;5124511;28;20424;-70
2023/07/04 08:37:25;;;;;;;0.40;0.40;;;19.60;99.90;;;;;;5132108;27;20038;-75
2023/07/04 08:39:51;;;;;;;0.40;0.40;;;20.00;99.90;;;;;;5147571;27;20031;-77
2023/07/04 08:42:21;;;;;;;0.30;0.30;;;20.30;99.90;;;;;;5155229;27;20038;-74
2023/07/04 08:44:50;;;;;;;0.30;0.30;;;20.50;99.90;;;;;;5138185;27;20528;-72
2023/07/04 08:47:18;;;;;;;0.30;0.30;;;20.70;99.90;;;;;;5143149;27;20039;-73
2023/07/04 08:50:06;;;;;;;0.30;0.30;;;20.80;99.90;;;;;;5120304;27;20031;-72
2023/07/04 08:52:48;;;;;;;;;;;20.90;99.90;;;;;;5118028;27;20046;-75
2023/07/04 08:55:16;;;;;;;0.40;0.40;;;20.80;99.90;;;;;;5130020;27;20377;-73
2023/07/04 08:57:56;;;;;;;0.38;0.30;;;20.50;99.90;;;;;;5135380;27;20054;-74
2023/07/04 09:00:33;;;;;;;0.30;0.30;;;20.30;99.90;;;;;;5117386;28;20040;-73
2023/07/04 09:03:17;;;;;;;0.30;0.30;;;20.20;99.90;;;;;;5117630;28;20035;-75
2023/07/04 09:06:08;;;;;;;0.30;0.30;;;20.00;99.90;;;;;;5125109;27;20475;-75
2023/07/04 09:08:58;;;;;;;0.30;0.30;;;19.70;99.90;;;;;;5135976;27;20058;-77
2023/07/04 09:11:25;;;;;;;3.03;0.38;;;19.60;99.90;;;;;;5138261;27;20376;-74
2023/07/04 09:13:55;;;;;;;;;;;19.20;99.90;;;;;;5138552;27;20072;-73
2023/07/04 09:16:41;;;;;;;0.30;0.30;;;19.00;99.90;;;;;;5138027;27;19915;-73
2023/07/04 09:19:09;;;;;;;0.30;0.30;;;18.80;99.90;;;;;;5137557;27;20039;-74
2023/07/04 09:21:36;;;;;;;0.30;0.30;;;18.80;99.90;;;;;;5137940;27;20047;-75
2023/07/04 09:24:03;;;;;;;0.30;0.30;;;18.60;99.90;;;;;;5137760;27;20043;-77
2023/07/04 09:26:39;;;;;;;0.30;0.30;;;18.30;99.90;;;;;;5137660;27;20035;-76
2023/07/04 09:29:06;;;;;;;0.30;0.30;;;18.10;99.90;;;;;;5137847;27;20035;-76
2023/07/04 09:31:33;;;;;;;;;;;17.90;99.90;;;;;;5137878;27;20042;-75
2023/07/04 09:34:05;;;;;;;0.52;0.52;;;17.70;99.90;;;;;;5137255;27;20385;-76
2023/07/04 09:36:33;;;;;;;0.30;0.30;;;17.50;99.90;;;;;;5139209;27;20039;-76
2023/07/04 09:39:03;;;;;;;0.30;0.30;;;17.40;99.90;;;;;;5120838;27;20038;-76
2023/07/04 09:41:32;;;;;;;0.30;0.30;;;17.40;99.90;;;;;;5120448;27;20046;-75
2023/07/04 09:44:19;;;;;;;0.35;0.35;;;17.60;99.90;;;;;;5138587;27;20047;-75
2023/07/04 09:46:50;;;;;;;0.37;0.37;;;18.00;99.90;;;;;;5138496;27;20175;-76
2023/07/04 09:49:24;;;;;;;0.30;0.30;;;18.20;99.90;;;;;;5137882;27;20044;-76
2023/07/04 09:52:01;;;;;;;0.30;0.30;;;18.20;99.90;;;;;;5137579;27;20126;-74
2023/07/04 09:54:28;;;;;;;0.95;0.50;;;18.30;99.90;;;;;;5137409;27;20070;-78
2023/07/04 09:56:54;;;;;;;0.30;0.30;;;18.30;99.90;;;;;;5136221;27;20099;-79
2023/07/04 09:59:26;;;;;;;0.30;0.30;;;18.30;99.90;;;;;;5137382;27;20039;-74
2023/07/04 10:02:11;;;;;;;0.40;0.40;;;18.50;99.90;;;;;;5136611;27;20164;-75
2023/07/04 10:04:40;;;;;;;0.30;0.30;;;18.80;99.90;;;;;;5136851;27;20046;-75
2023/07/04 10:07:13;;;;;;;0.30;0.30;;;19.10;99.90;;;;;;5137010;27;20050;-74
2023/07/04 10:10:06;;;;;;;0.30;0.30;;;19.30;99.90;;;;;;5136854;27;20031;-74
2023/07/04 10:12:43;;;;;;;0.30;0.30;;;19.50;99.90;;;;;;5137077;27;20035;-79
2023/07/04 10:15:09;;;;;;;0.30;0.30;;;19.80;99.90;;;;;;5136751;27;20043;-74
2023/07/04 10:17:37;;;;;;;0.30;0.30;;;20.00;99.90;;;;;;5136381;27;20121;-74
2023/07/04 10:20:13;;;;;;;0.85;0.85;;;19.90;99.90;;;;;;5136643;27;20051;-78
2023/07/04 10:22:41;;;;;;;0.30;0.30;;;19.90;99.90;;;;;;5136668;27;20046;-74
2023/07/04 10:25:11;;;;;;;0.30;0.30;;;20.10;99.90;;;;;;5136759;27;20047;-75
2023/07/04 10:27:39;;;;;;;0.65;0.65;;;20.40;99.90;;;;;;5136720;27;20088;-76
2023/07/04 10:30:15;;;;;;;0.35;0.35;;;20.60;99.90;;;;;;5136370;27;20035;-78
2023/07/04 10:32:44;;;;;;;0.30;0.30;;;20.70;99.90;;;;;;5136697;27;20412;-77
2023/07/04 10:35:13;;;;;;;0.30;0.30;;;20.50;99.90;;;;;;5136723;27;20125;-78
2023/07/04 10:37:41;;;;;;;0.40;0.40;;;20.20;99.90;;;;;;5136442;27;20043;-76
2023/07/04 10:40:10;;;;;;;0.30;0.30;;;20.10;99.90;;;;;;5136352;27;20035;-76
2023/07/04 10:43:13;;;;;;;0.35;0.35;;;19.90;99.90;;;;;;5136139;27;20043;-75
2023/07/04 10:45:41;;;;;;;0.40;0.40;;;19.80;99.90;;;;;;5032705;28;20088;-76
2023/07/04 10:48:14;;;;;;;0.40;0.40;;;19.60;99.90;;;;;;5117264;27;20051;-75
2023/07/04 10:51:14;;;;;;;0.40;0.40;;;19.40;99.90;;;;;;5136244;27;20082;-75
2023/07/04 10:53:40;;;;;;;0.40;0.40;;;19.40;99.90;;;;;;5135840;27;20032;-73
2023/07/04 10:56:17;;;;;;;0.40;0.40;;;19.40;99.90;;;;;;5136141;27;20039;-74
2023/07/04 10:58:47;;;;;;;0.40;0.40;;;19.30;99.90;;;;;;5135941;27;20035;-73
2023/07/04 11:01:21;;;;;;;0.30;0.30;;;19.20;99.90;;;;;;5135719;27;20083;-73
2023/07/04 11:04:22;;;;;;;0.30;0.30;;;19.10;99.90;;;;;;5135339;27;20119;-73
2023/07/04 11:07:00;;;;;;;0.40;0.40;;;19.10;99.90;;;;;;5113759;27;20127;-73
2023/07/04 11:09:31;;;;;;;0.50;0.50;;;19.10;99.90;;;;;;5135470;27;20096;-73
2023/07/04 11:12:02;;;;;;;0.40;0.40;;;19.00;99.90;;;;;;5135853;27;20118;-73
2023/07/04 11:14:30;;;;;;;0.40;0.40;;;19.00;99.90;;;;;;5135199;27;20047;-73
2023/07/04 11:17:03;;;;;;;0.60;0.60;;;18.90;99.90;;;;;;5135363;27;20479;-73
2023/07/04 11:19:32;;;;;;;0.38;0.38;;;18.80;99.90;;;;;;5135505;27;20064;-73
2023/07/04 11:22:01;;;;;;;0.40;0.40;;;18.80;99.90;;;;;;5135563;27;20047;-72
2023/07/04 11:24:36;;;;;;;0.40;0.40;;;18.70;99.90;;;;;;5135527;27;20054;-73
2023/07/04 11:27:10;;;;;;;0.40;0.40;;;18.70;99.90;;;;;;5135328;27;20039;-73
2023/07/04 11:29:48;;;;;;;0.40;0.40;;;18.70;99.90;;;;;;5135297;27;20039;-73
2023/07/04 11:32:51;;;;;;;0.40;0.40;;;18.70;99.90;;;;;;5135008;27;20497;-73
2023/07/04 11:35:22;;;;;;;0.40;0.40;;;18.70;99.90;;;;;;5134943;27;20043;-72
2023/07/04 11:38:01;;;;;;;0.40;0.40;;;19.10;99.90;;;;;;5117037;27;20424;-73
2023/07/04 11:40:32;;;;;;;0.40;0.40;;;19.40;99.90;;;;;;5116764;27;20381;-73
2023/07/04 11:43:12;;;;;;;0.35;0.35;;;19.60;99.90;;;;;;5135132;27;20065;-73
2023/07/04 11:45:39;;;;;;;0.40;0.40;;;19.70;99.90;;;;;;5135097;27;20039;-73
2023/07/04 11:48:11;;;;;;;0.50;0.50;;;19.80;99.90;;;;;;5135178;27;20126;-73
2023/07/04 11:50:46;;;;;;;0.32;0.32;;;19.80;99.90;;;;;;5134846;27;20039;-73
2023/07/04 11:53:23;;;;;;;0.40;0.40;;;19.90;99.90;;;;;;5135123;27;20082;-73
2023/07/04 11:56:05;;;;;;;0.40;0.40;;;19.80;99.90;;;;;;5135137;27;20039;-74
2023/07/04 11:58:31;;;;;;;0.50;0.50;;;19.60;99.90;;;;;;5134727;27;20381;-76
2023/07/04 12:00:58;;;;;;;0.70;0.70;;;19.60;99.90;;;;;;5134874;27;20031;-72
2023/07/04 12:03:27;;;;;;;0.40;0.40;;;19.70;99.90;;;;;;5134212;27;20038;-74
2023/07/04 12:05:57;;;;;;;0.38;0.38;;;19.90;99.90;;;;;;5134702;27;20039;-73
2023/07/04 12:08:34;;;;;;;0.40;0.40;;;20.00;99.90;;;;;;5134725;27;20506;-72
2023/07/04 12:11:04;;;;;;;0.40;0.40;;;20.00;99.90;;;;;;5134783;27;20035;-72
2023/07/04 12:13:34;;;;;;;0.30;0.30;;;20.00;99.90;;;;;;5134438;27;20127;-72
2023/07/04 12:16:02;;;;;;;0.30;0.30;;;19.90;99.90;;;;;;5134544;27;20079;-72
2023/07/04 12:18:32;;;;;;;0.32;0.32;;;20.00;99.90;;;;;;5115819;27;20035;-71
2023/07/04 12:20:58;;;;;;;0.40;0.40;;;20.10;99.90;;;;;;5134373;27;20046;-73
2023/07/04 12:23:24;;;;;;;0.40;0.40;;;20.30;99.90;;;;;;5134537;27;20051;-72
2023/07/04 12:25:52;;;;;;;0.40;0.40;;;20.50;99.90;;;;;;5134739;28;20432;-72
2023/07/04 12:28:24;;;;;;;0.40;0.40;;;20.50;99.90;;;;;;5134339;28;20042;-76
2023/07/04 12:30:59;;;;;;;0.38;0.38;;;20.90;99.90;;;;;;5134362;28;20035;-73
2023/07/04 12:33:30;;;;;;;0.52;0.52;;;21.00;99.90;;;;;;5132213;28;20119;-72
2023/07/04 12:36:01;;;;;;;0.47;0.47;;;20.90;99.90;;;;;;5132261;28;20804;-72
2023/07/04 12:38:29;;;;;;;0.30;0.30;;;20.90;99.90;;;;;;5133779;28;20031;-72
2023/07/04 12:40:57;;;;;;;0.30;0.30;;;20.60;99.90;;;;;;5133592;28;20039;-72
2023/07/04 12:43:29;;;;;;;0.60;0.60;;;20.40;99.90;;;;;;5115434;28;20572;-72
2023/07/04 12:46:08;;;;;;;0.40;0.40;;;20.20;99.90;;;;;;5133571;28;20035;-72
2023/07/04 12:48:35;;;;;;;0.30;0.30;;;20.30;99.90;;;;;;5134167;28;20090;-73
2023/07/04 12:51:01;;;;;;;0.40;0.40;;;20.30;99.90;;;;;;5134210;28;20047;-72
2023/07/04 12:53:28;;;;;;;0.30;0.30;;;20.30;99.90;;;;;;5134420;28;20039;-73
2023/07/04 12:55:55;;;;;;;0.30;0.30;;;20.20;99.90;;;;;;5134040;28;20039;-72
2023/07/04 12:58:21;;;;;;;0.30;0.30;;;20.00;99.90;;;;;;5134050;28;20489;-72
2023/07/04 13:00:55;;;;;;;0.40;0.40;;;20.00;99.90;;;;;;5134033;28;20043;-72
2023/07/04 13:03:25;;;;;;;0.30;0.30;;;20.00;99.90;;;;;;5134147;28;20455;-72